createdAt,value
2019-05-30T00:42:43.778Z,18.98
2019-05-30T00:45:20.741Z,18.98
2019-05-30T00:47:45.868Z,19.08
2019-05-30T01:35:01.938Z,19.16
2019-05-30T01:37:31.771Z,19.20
2019-05-30T01:40:03.926Z,19.20
2019-05-30T01:42:34.052Z,19.25
2019-05-30T01:45:06.135Z,19.25
2019-05-30T01:50:54.977Z,19.27
2019-05-30T01:53:45.798Z,19.16
2019-05-30T02:02:09.887Z,19.09
2019-05-30T02:04:38.886Z,19.07
2019-05-30T02:07:19.302Z,19.05
2019-05-30T02:09:53.789Z,19.08
2019-05-30T02:12:25.101Z,19.09
2019-05-30T02:23:39.637Z,19.06
2019-05-30T02:26:13.114Z,19.13
2019-05-30T02:28:42.764Z,19.11
2019-05-30T02:31:12.576Z,19.15
2019-05-30T02:33:43.613Z,19.18
2019-05-30T02:36:17.886Z,19.13
2019-05-30T02:38:47.450Z,19.15
2019-05-30T02:41:17.254Z,19.20
2019-05-30T02:43:47.046Z,19.17
2019-05-30T02:46:37.903Z,19.19
2019-05-30T02:49:11.461Z,19.23
2019-05-30T02:51:40.708Z,19.22
2019-05-30T02:54:11.509Z,19.22
2019-05-30T02:56:41.628Z,19.25
2019-05-30T02:59:13.398Z,19.27
2019-05-30T03:01:58.812Z,19.26
2019-05-30T03:04:13.802Z,19.24
2019-05-30T03:06:43.715Z,19.30
2019-05-30T03:09:23.288Z,19.27
2019-05-30T03:11:54.463Z,19.25
2019-05-30T03:14:24.490Z,19.29
2019-05-30T03:16:54.108Z,19.26
2019-05-30T03:19:25.124Z,19.23
2019-05-30T03:22:26.201Z,19.29
2019-05-30T03:34:18.255Z,19.32
2019-05-30T03:37:08.513Z,19.28
2019-05-30T03:39:34.823Z,19.33
2019-05-30T03:42:04.599Z,19.35
2019-05-30T03:44:37.693Z,19.36
2019-05-30T03:47:13.772Z,19.37
2019-05-30T03:49:46.927Z,19.39
2019-05-30T03:52:18.616Z,19.39
2019-05-30T03:54:54.340Z,19.37
2019-05-30T03:57:37.001Z,19.41
2019-05-30T04:16:37.543Z,19.45
2019-05-30T04:24:58.181Z,19.48
2019-05-30T04:27:27.847Z,19.47
2019-05-30T04:30:09.969Z,19.49
2019-05-30T04:47:12.118Z,19.43
2019-05-30T05:04:48.565Z,19.53
2019-05-30T05:07:19.775Z,19.56
2019-05-30T05:10:12.096Z,19.63
2019-05-30T05:12:45.695Z,19.64
2019-05-30T05:15:26.290Z,19.71
2019-05-30T05:18:00.962Z,19.75
2019-05-30T05:20:41.056Z,19.83
2019-05-30T05:23:17.282Z,19.83
2019-05-30T05:26:00.284Z,19.87
2019-05-30T05:28:19.975Z,19.86
2019-05-30T05:30:49.621Z,19.90
2019-05-30T05:33:20.476Z,19.93
2019-05-30T05:35:50.326Z,19.99
2019-05-30T05:38:20.212Z,20.05
2019-05-30T05:40:50.823Z,20.11
2019-05-30T05:43:20.405Z,20.11
2019-05-30T05:45:49.961Z,20.14
2019-05-30T05:48:20.471Z,20.15
2019-05-30T05:50:50.165Z,20.17
2019-05-30T05:53:25.631Z,20.08
2019-05-30T05:55:55.096Z,20.17
2019-05-30T06:01:08.327Z,20.16
2019-05-30T06:03:41.454Z,20.23
2019-05-30T06:06:12.018Z,20.31
2019-05-30T06:08:43.604Z,20.35
2019-05-30T06:11:14.209Z,20.43
2019-05-30T06:16:41.971Z,20.44
2019-05-30T06:19:46.600Z,20.46
2019-05-30T06:22:46.723Z,20.50
2019-05-30T06:25:32.447Z,20.56
2019-05-30T06:28:04.982Z,20.61
2019-05-30T06:30:45.549Z,20.65
2019-05-30T06:39:09.336Z,20.56
2019-05-30T06:47:53.391Z,20.69
2019-05-30T06:50:24.632Z,20.71
2019-05-30T06:58:56.772Z,20.96
2019-05-30T07:01:32.072Z,20.97
2019-05-30T07:04:04.344Z,21.04
2019-05-30T07:06:34.504Z,21.03
2019-05-30T07:09:05.607Z,21.01
2019-05-30T07:11:35.357Z,20.97
2019-05-30T07:14:05.567Z,21.02
2019-05-30T07:16:35.181Z,21.03
2019-05-30T07:19:04.906Z,21.06
2019-05-30T07:21:34.454Z,21.16
2019-05-30T07:24:04.041Z,21.24
2019-05-30T07:26:34.039Z,21.24
2019-05-30T07:29:03.888Z,21.31
2019-05-30T07:31:34.363Z,21.35
2019-05-30T07:34:06.853Z,21.35
2019-05-30T07:36:51.054Z,21.34
2019-05-30T07:39:27.134Z,21.44
2019-05-30T07:42:05.669Z,21.54
2019-05-30T07:44:57.710Z,21.54
2019-05-30T08:02:07.010Z,21.74
2019-05-30T08:19:27.757Z,21.90
2019-05-30T08:22:02.657Z,21.91
2019-05-30T08:27:08.051Z,21.97
2019-05-30T08:29:59.513Z,22.00
2019-05-30T08:32:34.539Z,21.96
2019-05-30T08:35:20.653Z,22.02
2019-05-30T08:40:33.399Z,22.23
2019-05-30T08:43:14.606Z,22.33
2019-05-30T08:45:46.650Z,22.35
2019-05-30T08:48:22.359Z,22.32
2019-05-30T08:50:54.159Z,22.30
2019-05-30T08:56:40.773Z,22.30
2019-05-30T09:08:04.829Z,22.30
2019-05-30T09:10:34.408Z,22.14
2019-05-30T09:13:12.076Z,22.13
2019-05-30T09:15:43.024Z,22.15
2019-05-30T09:18:15.605Z,22.22
2019-05-30T09:20:45.369Z,22.17
2019-05-30T09:23:16.587Z,22.26
2019-05-30T09:25:48.257Z,22.28
2019-05-30T09:28:18.399Z,22.37
2019-05-30T09:30:49.253Z,22.48
2019-05-30T09:33:33.913Z,22.48
2019-05-30T09:36:12.801Z,22.57
2019-05-30T09:38:41.855Z,22.71
2019-05-30T09:41:11.793Z,22.84
2019-05-30T09:43:42.915Z,22.99
2019-05-30T09:46:16.203Z,23.10
2019-05-30T09:48:46.704Z,23.22
2019-05-30T09:53:46.105Z,23.32
2019-05-30T09:56:15.671Z,23.34
2019-05-30T09:58:46.059Z,23.37
2019-05-30T10:01:15.931Z,23.33
2019-05-30T10:03:46.483Z,23.28
2019-05-30T10:06:29.142Z,23.25
2019-05-30T10:09:17.316Z,23.19
2019-05-30T10:11:47.279Z,23.11
2019-05-30T10:14:16.953Z,23.07
2019-05-30T10:16:50.688Z,23.05
2019-05-30T10:19:17.844Z,23.04
2019-05-30T10:21:51.679Z,23.03
2019-05-30T10:24:30.424Z,23.03
2019-05-30T10:27:00.308Z,23.07
2019-05-30T10:29:29.929Z,23.09
2019-05-30T10:32:06.869Z,23.23
2019-05-30T10:34:37.034Z,23.29
2019-05-30T10:37:08.703Z,23.34
2019-05-30T10:39:38.337Z,23.43
2019-05-30T10:42:07.878Z,23.48
2019-05-30T10:44:37.393Z,23.54
2019-05-30T10:47:11.261Z,23.66
2019-05-30T10:49:57.776Z,23.75
2019-05-30T10:52:27.431Z,23.81
2019-05-30T11:00:53.769Z,23.71
2019-05-30T11:03:31.012Z,23.81
2019-05-30T11:06:10.649Z,23.90
2019-05-30T11:08:42.484Z,23.85
2019-05-30T11:11:13.441Z,23.78
2019-05-30T11:13:43.538Z,23.70
2019-05-30T11:16:14.047Z,23.61
2019-05-30T11:18:43.833Z,23.60
2019-05-30T11:21:19.450Z,23.51
2019-05-30T11:23:49.672Z,23.49
2019-05-30T11:26:21.642Z,23.53
2019-05-30T11:28:52.549Z,23.59
2019-05-30T11:31:26.785Z,23.59
2019-05-30T11:33:57.129Z,23.46
2019-05-30T11:36:27.030Z,23.35
2019-05-30T11:39:01.851Z,23.37
2019-05-30T11:41:31.488Z,23.36
2019-05-30T11:44:04.159Z,23.39
2019-05-30T11:46:33.708Z,23.46
2019-05-30T11:49:22.353Z,23.42
2019-05-30T11:51:52.066Z,23.48
2019-05-30T11:54:21.498Z,23.46
2019-05-30T11:56:52.030Z,23.53
2019-05-30T11:59:21.906Z,23.63
2019-05-30T12:01:54.549Z,23.81
2019-05-30T12:04:25.784Z,23.88
2019-05-30T12:06:56.704Z,24.07
2019-05-30T12:09:26.343Z,24.09
2019-05-30T12:11:59.374Z,24.29
2019-05-30T12:14:37.181Z,24.18
2019-05-30T12:17:04.512Z,24.37
2019-05-30T12:19:34.238Z,24.22
2019-05-30T12:22:09.182Z,24.17
2019-05-30T12:24:43.235Z,24.22
2019-05-30T12:27:12.888Z,24.40
2019-05-30T12:29:54.015Z,24.33
2019-05-30T12:32:24.185Z,24.46
2019-05-30T12:35:31.421Z,24.41
2019-05-30T12:38:16.653Z,24.54
2019-05-30T12:40:56.646Z,24.64
2019-05-30T12:43:35.019Z,24.85
2019-05-30T12:46:07.829Z,24.95
2019-05-30T12:48:44.347Z,24.94
2019-05-30T12:51:15.175Z,24.78
2019-05-30T12:53:56.566Z,24.86
2019-05-30T12:56:26.288Z,24.80
2019-05-30T13:02:12.229Z,24.58
2019-05-30T13:04:51.944Z,24.37
2019-05-30T13:07:25.114Z,24.11
2019-05-30T13:09:58.958Z,24.62
2019-05-30T13:12:29.416Z,24.89
2019-05-30T13:15:22.935Z,25.43
2019-05-30T13:17:57.298Z,25.49
2019-05-30T13:20:26.959Z,25.83
2019-05-30T13:23:00.524Z,25.91
2019-05-30T13:25:41.663Z,25.93
2019-05-30T13:28:23.354Z,26.15
2019-05-30T13:30:53.148Z,26.18
2019-05-30T13:33:22.943Z,26.34
2019-05-30T13:35:52.431Z,26.50
2019-05-30T13:38:26.479Z,26.47
2019-05-30T13:40:55.546Z,26.43
2019-05-30T13:46:30.989Z,26.74
2019-05-30T13:49:08.684Z,26.89
2019-05-30T13:51:48.447Z,27.08
2019-05-30T13:54:23.239Z,27.20
2019-05-30T13:56:53.331Z,27.32
2019-05-30T13:59:26.548Z,27.53
2019-05-30T14:02:28.087Z,27.71
2019-05-30T14:05:10.728Z,27.89
2019-05-30T14:08:40.596Z,28.03
2019-05-30T14:11:25.783Z,28.10
2019-05-30T14:13:58.185Z,28.18
2019-05-30T14:16:38.727Z,28.18
2019-05-30T14:19:13.014Z,28.27
2019-05-30T14:22:24.904Z,28.29
2019-05-30T14:24:54.950Z,28.03
2019-05-30T14:27:36.785Z,27.39
2019-05-30T14:30:18.378Z,26.85
2019-05-30T14:32:59.211Z,26.49
2019-05-30T14:35:44.632Z,26.06
2019-05-30T14:38:14.916Z,25.78
2019-05-30T14:40:45.807Z,25.47
2019-05-30T14:43:15.360Z,25.27
2019-05-30T14:45:47.031Z,25.10
2019-05-30T14:48:30.693Z,24.91
2019-05-30T14:51:36.103Z,24.71
2019-05-30T14:54:39.289Z,24.53
2019-05-30T15:03:00.704Z,24.55
2019-05-30T15:05:33.069Z,24.55
2019-05-30T15:08:06.487Z,24.57
2019-05-30T15:20:06.008Z,24.71
2019-05-30T15:25:54.736Z,24.66
2019-05-30T15:28:33.144Z,24.59
2019-05-30T15:31:02.771Z,24.58
2019-05-30T15:37:40.774Z,24.47
2019-05-30T15:43:22.012Z,24.26
2019-05-30T15:45:51.530Z,24.03
2019-05-30T15:48:22.458Z,23.95
2019-05-30T15:50:55.868Z,23.86
2019-05-30T15:53:31.934Z,23.76
2019-05-30T15:56:30.902Z,23.70
2019-05-30T16:01:59.017Z,23.60
2019-05-30T16:04:42.879Z,23.61
2019-05-30T16:07:13.158Z,23.61
2019-05-30T16:09:58.430Z,23.72
2019-05-30T16:12:38.281Z,23.78
2019-05-30T16:15:50.876Z,23.80
2019-05-30T16:22:12.274Z,23.79
2019-05-30T16:28:40.663Z,23.81
2019-05-30T16:31:13.756Z,23.71
2019-05-30T16:33:51.701Z,23.63
2019-05-30T16:36:45.522Z,23.56
2019-05-30T16:41:54.250Z,23.44
2019-05-30T16:44:33.463Z,23.37
2019-05-30T16:47:06.673Z,23.26
2019-05-30T17:03:58.789Z,22.94
2019-05-30T17:06:29.637Z,22.88
2019-05-30T17:09:00.529Z,22.81
2019-05-30T17:11:45.843Z,22.65
2019-05-30T17:14:15.657Z,22.53
2019-05-30T17:16:45.151Z,22.38
2019-05-30T17:19:16.398Z,22.28
2019-05-30T17:21:51.938Z,22.26
2019-05-30T17:24:21.565Z,22.24
2019-05-30T17:27:09.532Z,22.21
2019-05-30T17:29:41.843Z,22.17
2019-05-30T17:32:16.067Z,22.17
2019-05-30T17:34:50.290Z,22.16
2019-05-30T17:37:24.440Z,22.19
2019-05-30T17:45:21.069Z,22.16
2019-05-30T17:47:59.481Z,22.12
2019-05-30T17:50:22.220Z,22.00
2019-05-30T17:52:52.496Z,22.01
2019-05-30T17:55:26.129Z,21.90
2019-05-30T17:58:00.233Z,21.91
2019-05-30T18:00:31.306Z,21.96
2019-05-30T18:03:01.164Z,21.96
2019-05-30T18:05:31.020Z,21.96
2019-05-30T18:08:01.795Z,21.96
2019-05-30T18:10:37.188Z,21.95
2019-05-30T18:13:08.901Z,21.95
2019-05-30T18:15:39.441Z,21.95
2019-05-30T18:18:09.095Z,21.80
2019-05-30T18:20:48.392Z,21.71
2019-05-30T18:23:13.736Z,21.69
2019-05-30T18:25:43.996Z,21.66
2019-05-30T18:28:25.759Z,21.63
2019-05-30T18:30:59.051Z,21.59
2019-05-30T18:33:30.218Z,21.56
2019-05-30T18:36:03.974Z,21.48
2019-05-30T18:38:33.952Z,21.48
2019-05-30T18:41:11.382Z,21.48
2019-05-30T18:43:37.634Z,21.36
2019-05-30T18:46:43.570Z,21.39
2019-05-30T18:49:15.202Z,21.32
2019-05-30T20:37:09.274Z,20.78
2019-05-30T20:40:25.550Z,20.71
2019-05-30T20:52:53.382Z,20.74
2019-05-30T22:14:00.533Z,20.48
2019-05-30T22:22:25.494Z,20.50
2019-05-30T22:24:57.524Z,20.54
2019-05-30T22:27:38.867Z,20.51
2019-05-30T22:30:11.107Z,20.51
2019-05-30T22:33:08.560Z,20.50
2019-05-30T22:38:24.541Z,20.56
2019-05-30T22:41:13.980Z,20.52
2019-05-30T22:47:44.115Z,20.52
2019-05-30T22:53:38.781Z,20.52
2019-05-30T23:14:03.717Z,20.36
